RYR89DJ LERS-EICK
Flight info
| Callsign | RYR89DJ |
|---|---|
| Flight time | 1h 57m |
| Altitude | 34000 |
| Route | POSSY M601 CEGAM/N0448F370 M601 BLV/N0445F360 N75 DELOG DCT KOLEK DCT AMPOP DCT ARKIL DCT ERTER ERTER1G |
| Aircraft | B738/M-SDE2E3FGHIRWXY/LB1 |
Departure
| Time | 2026-04-29 16:46 |
|---|---|
| Airport | Reus Airport (LERS) |
Arrival
| Time | 2026-04-29 18:43 |
|---|---|
| Airport | Cork International Airport (EICK) |
| Time | Latitude | Longitude | Altitude | Speed | Heading |
|---|---|---|---|---|---|
| 2026-04-29 16:25 | 41.14665 | 1.15560 | 242 ft | 0 kts | 339° |
| 2026-04-29 16:40 | 41.14650 | 1.15568 | 242 ft | 2 kts | 339° |
| 2026-04-29 16:40 | 41.14635 | 1.15576 | 242 ft | 2 kts | 339° |
| 2026-04-29 16:40 | 41.14620 | 1.15584 | 242 ft | 2 kts | 339° |
| 2026-04-29 16:40 | 41.14605 | 1.15593 | 242 ft | 2 kts | 316° |
| 2026-04-29 16:41 | 41.14596 | 1.15611 | 242 ft | 2 kts | 271° |
| 2026-04-29 16:41 | 41.14600 | 1.15632 | 242 ft | 1 kts | 250° |
| 2026-04-29 16:44 | 41.14600 | 1.15631 | 242 ft | 1 kts | 250° |
| 2026-04-29 16:44 | 41.14592 | 1.15605 | 242 ft | 6 kts | 248° |
| 2026-04-29 16:44 | 41.14560 | 1.15566 | 242 ft | 7 kts | 189° |
| 2026-04-29 16:45 | 41.14514 | 1.15580 | 242 ft | 7 kts | 158° |
| 2026-04-29 16:45 | 41.14469 | 1.15603 | 242 ft | 7 kts | 159° |
| 2026-04-29 16:45 | 41.14433 | 1.15646 | 242 ft | 8 kts | 108° |
| 2026-04-29 16:45 | 41.14449 | 1.15718 | 242 ft | 10 kts | 70° |
| 2026-04-29 16:46 | 41.14555 | 1.16086 | 242 ft | 87 kts | 69° |
| 2026-04-29 16:46 | 41.14865 | 1.17189 | 264 ft | 162 kts | 72° |
| 2026-04-29 16:46 | 41.15332 | 1.18639 | 1080 ft | 167 kts | 69° |
| 2026-04-29 16:46 | 41.15751 | 1.20040 | 2248 ft | 169 kts | 72° |
| 2026-04-29 16:47 | 41.16175 | 1.21540 | 3013 ft | 186 kts | 74° |
| 2026-04-29 16:47 | 41.16646 | 1.23270 | 3370 ft | 214 kts | 71° |
| 2026-04-29 16:47 | 41.17203 | 1.25171 | 3959 ft | 225 kts | 71° |
| 2026-04-29 16:47 | 41.17786 | 1.27134 | 4675 ft | 231 kts | 70° |
| 2026-04-29 16:48 | 41.18382 | 1.29144 | 5449 ft | 241 kts | 70° |
| 2026-04-29 16:48 | 41.19031 | 1.31344 | 5863 ft | 267 kts | 70° |
| 2026-04-29 16:48 | 41.19715 | 1.33669 | 6668 ft | 274 kts | 70° |
| 2026-04-29 16:48 | 41.20424 | 1.36050 | 7514 ft | 279 kts | 66° |
| 2026-04-29 16:49 | 41.21606 | 1.38080 | 8330 ft | 287 kts | 35° |
| 2026-04-29 16:49 | 41.23479 | 1.38964 | 9239 ft | 290 kts | 1° |
| 2026-04-29 16:49 | 41.25431 | 1.38388 | 10074 ft | 292 kts | 328° |
| 2026-04-29 16:49 | 41.26927 | 1.36527 | 10534 ft | 308 kts | 300° |
| 2026-04-29 16:50 | 41.27592 | 1.33740 | 10711 ft | 331 kts | 273° |
| 2026-04-29 16:50 | 41.27715 | 1.30614 | 11238 ft | 343 kts | 276° |
| 2026-04-29 16:50 | 41.28235 | 1.27482 | 11948 ft | 350 kts | 287° |
| 2026-04-29 16:50 | 41.29148 | 1.24456 | 12794 ft | 353 kts | 294° |
| 2026-04-29 16:51 | 41.30280 | 1.21587 | 13598 ft | 357 kts | 298° |
| 2026-04-29 16:51 | 41.31538 | 1.18699 | 14272 ft | 363 kts | 300° |
| 2026-04-29 16:51 | 41.33039 | 1.15975 | 14988 ft | 368 kts | 311° |
| 2026-04-29 16:51 | 41.34857 | 1.13543 | 15719 ft | 371 kts | 314° |
| 2026-04-29 16:52 | 41.36701 | 1.11114 | 16363 ft | 376 kts | 313° |
| 2026-04-29 16:52 | 41.38567 | 1.08636 | 17059 ft | 379 kts | 313° |
| 2026-04-29 16:52 | 41.40442 | 1.06130 | 17748 ft | 383 kts | 313° |
| 2026-04-29 16:52 | 41.42328 | 1.03593 | 18383 ft | 387 kts | 313° |
| 2026-04-29 16:53 | 41.44225 | 1.01028 | 19018 ft | 389 kts | 312° |
| 2026-04-29 16:53 | 41.46106 | 0.98476 | 19590 ft | 393 kts | 312° |
| 2026-04-29 16:53 | 41.48024 | 0.95870 | 20180 ft | 396 kts | 312° |
| 2026-04-29 16:53 | 41.49959 | 0.93236 | 20755 ft | 399 kts | 312° |
| 2026-04-29 16:54 | 41.51909 | 0.90576 | 21333 ft | 402 kts | 312° |
| 2026-04-29 16:54 | 41.53869 | 0.87901 | 21873 ft | 405 kts | 312° |
| 2026-04-29 16:54 | 41.55847 | 0.85198 | 22445 ft | 407 kts | 312° |
| 2026-04-29 16:54 | 41.57840 | 0.82475 | 23013 ft | 410 kts | 312° |
| 2026-04-29 16:55 | 41.59842 | 0.79735 | 23540 ft | 413 kts | 312° |
| 2026-04-29 16:55 | 41.61833 | 0.77007 | 23947 ft | 417 kts | 312° |
| 2026-04-29 16:55 | 41.63860 | 0.74229 | 24422 ft | 418 kts | 312° |
| 2026-04-29 16:55 | 41.65897 | 0.71434 | 24883 ft | 420 kts | 312° |
| 2026-04-29 16:56 | 41.67947 | 0.68619 | 25302 ft | 423 kts | 312° |
| 2026-04-29 16:56 | 41.70009 | 0.65782 | 25703 ft | 426 kts | 312° |
| 2026-04-29 16:56 | 41.72086 | 0.62923 | 26119 ft | 429 kts | 312° |
| 2026-04-29 16:56 | 41.74014 | 0.60267 | 26503 ft | 431 kts | 312° |
| 2026-04-29 16:57 | 41.76108 | 0.57381 | 26882 ft | 433 kts | 312° |
| 2026-04-29 16:57 | 41.78217 | 0.54469 | 27267 ft | 436 kts | 312° |
| 2026-04-29 16:57 | 41.80308 | 0.51581 | 27657 ft | 438 kts | 312° |
| 2026-04-29 16:57 | 41.82433 | 0.48641 | 28033 ft | 440 kts | 312° |
| 2026-04-29 16:58 | 41.84579 | 0.45670 | 28351 ft | 444 kts | 312° |
| 2026-04-29 16:58 | 41.86737 | 0.42678 | 28684 ft | 447 kts | 312° |
| 2026-04-29 16:58 | 41.88907 | 0.39668 | 29077 ft | 448 kts | 312° |
| 2026-04-29 16:58 | 41.91081 | 0.36650 | 29457 ft | 450 kts | 313° |
| 2026-04-29 16:59 | 41.93258 | 0.33624 | 29834 ft | 451 kts | 312° |
| 2026-04-29 16:59 | 41.95441 | 0.30585 | 30257 ft | 450 kts | 313° |
| 2026-04-29 16:59 | 41.97577 | 0.27610 | 30699 ft | 447 kts | 313° |
| 2026-04-29 16:59 | 41.99736 | 0.24598 | 31116 ft | 446 kts | 313° |
| 2026-04-29 17:00 | 42.01889 | 0.21592 | 31475 ft | 446 kts | 313° |
| 2026-04-29 17:00 | 42.04040 | 0.18586 | 31826 ft | 446 kts | 313° |
| 2026-04-29 17:00 | 42.06179 | 0.15577 | 32229 ft | 444 kts | 311° |
| 2026-04-29 17:00 | 42.08200 | 0.12437 | 32642 ft | 442 kts | 308° |
| 2026-04-29 17:01 | 42.10110 | 0.09212 | 33045 ft | 440 kts | 307° |
| 2026-04-29 17:01 | 42.11971 | 0.05958 | 33389 ft | 440 kts | 306° |
| 2026-04-29 17:01 | 42.13826 | 0.02686 | 33763 ft | 439 kts | 306° |
| 2026-04-29 17:01 | 42.15684 | -0.00580 | 33944 ft | 441 kts | 306° |
| 2026-04-29 17:02 | 42.19462 | -0.07157 | 33942 ft | 442 kts | 307° |
| 2026-04-29 17:02 | 42.23219 | -0.13643 | 33949 ft | 435 kts | 307° |
| 2026-04-29 17:03 | 42.26954 | -0.20080 | 33940 ft | 436 kts | 307° |
| 2026-04-29 17:03 | 42.30676 | -0.26511 | 33949 ft | 437 kts | 307° |
| 2026-04-29 17:04 | 42.34416 | -0.32986 | 33942 ft | 437 kts | 307° |
| 2026-04-29 17:04 | 42.38145 | -0.39456 | 33947 ft | 436 kts | 307° |
| 2026-04-29 17:05 | 42.41879 | -0.45952 | 33963 ft | 435 kts | 307° |
| 2026-04-29 17:05 | 42.45574 | -0.52393 | 33956 ft | 435 kts | 306° |
| 2026-04-29 17:06 | 42.49295 | -0.58893 | 33961 ft | 435 kts | 306° |
| 2026-04-29 17:06 | 42.53011 | -0.65399 | 33948 ft | 436 kts | 306° |
| 2026-04-29 17:07 | 42.56703 | -0.71877 | 33941 ft | 436 kts | 306° |
| 2026-04-29 17:07 | 42.60416 | -0.78407 | 33930 ft | 437 kts | 306° |
| 2026-04-29 17:08 | 42.64134 | -0.84957 | 33944 ft | 438 kts | 306° |
| 2026-04-29 17:08 | 42.67854 | -0.91528 | 33921 ft | 439 kts | 306° |
| 2026-04-29 17:09 | 42.71578 | -0.98119 | 33943 ft | 440 kts | 306° |
| 2026-04-29 17:09 | 42.75308 | -1.04736 | 33913 ft | 440 kts | 305° |
| 2026-04-29 17:10 | 42.79005 | -1.11308 | 33916 ft | 441 kts | 305° |
| 2026-04-29 17:10 | 42.82729 | -1.17944 | 33922 ft | 441 kts | 305° |
| 2026-04-29 17:11 | 42.86461 | -1.24609 | 33922 ft | 442 kts | 305° |
| 2026-04-29 17:11 | 42.90163 | -1.31234 | 33908 ft | 443 kts | 304° |
| 2026-04-29 17:12 | 42.93894 | -1.37929 | 33913 ft | 443 kts | 304° |
| 2026-04-29 17:12 | 42.97000 | -1.43512 | 33906 ft | 444 kts | 304° |
| 2026-04-29 17:13 | 43.01360 | -1.51366 | 33908 ft | 444 kts | 304° |
| 2026-04-29 17:13 | 43.05070 | -1.58067 | 33902 ft | 443 kts | 304° |
| 2026-04-29 17:14 | 43.08796 | -1.64811 | 33873 ft | 443 kts | 304° |
| 2026-04-29 17:14 | 43.12509 | -1.71549 | 33863 ft | 442 kts | 304° |
| 2026-04-29 17:15 | 43.16192 | -1.78245 | 33863 ft | 442 kts | 303° |
| 2026-04-29 17:15 | 43.19893 | -1.84990 | 33846 ft | 442 kts | 303° |
| 2026-04-29 17:16 | 43.23587 | -1.91739 | 33844 ft | 442 kts | 303° |
| 2026-04-29 17:16 | 43.27272 | -1.98485 | 33839 ft | 442 kts | 303° |
| 2026-04-29 17:17 | 43.30928 | -2.05194 | 33847 ft | 441 kts | 303° |
| 2026-04-29 17:17 | 43.34598 | -2.11945 | 33850 ft | 440 kts | 303° |
| 2026-04-29 17:18 | 43.38254 | -2.18685 | 33851 ft | 440 kts | 302° |
| 2026-04-29 17:18 | 43.41912 | -2.25443 | 33845 ft | 440 kts | 302° |
| 2026-04-29 17:19 | 43.45565 | -2.32209 | 33851 ft | 440 kts | 302° |
| 2026-04-29 17:19 | 43.49190 | -2.38938 | 33833 ft | 440 kts | 302° |
| 2026-04-29 17:20 | 43.52838 | -2.45726 | 33840 ft | 440 kts | 302° |
| 2026-04-29 17:20 | 43.56482 | -2.52521 | 33832 ft | 441 kts | 302° |
| 2026-04-29 17:21 | 43.60126 | -2.59334 | 33835 ft | 441 kts | 302° |
| 2026-04-29 17:21 | 43.63777 | -2.66174 | 33830 ft | 442 kts | 302° |
| 2026-04-29 17:22 | 43.67399 | -2.72976 | 33832 ft | 443 kts | 302° |
| 2026-04-29 17:22 | 43.71050 | -2.79848 | 33825 ft | 443 kts | 302° |
| 2026-04-29 17:23 | 43.74704 | -2.86741 | 33829 ft | 444 kts | 302° |
| 2026-04-29 17:23 | 43.78353 | -2.93643 | 33824 ft | 445 kts | 302° |
| 2026-04-29 17:24 | 43.81982 | -3.00521 | 33822 ft | 445 kts | 302° |
| 2026-04-29 17:24 | 43.85636 | -3.07464 | 33812 ft | 446 kts | 302° |
| 2026-04-29 17:25 | 43.89290 | -3.14423 | 33818 ft | 447 kts | 302° |
| 2026-04-29 17:25 | 43.92945 | -3.21402 | 33815 ft | 447 kts | 302° |
| 2026-04-29 17:26 | 43.95984 | -3.27216 | 33822 ft | 448 kts | 302° |
| 2026-04-29 17:26 | 43.99646 | -3.34238 | 33822 ft | 449 kts | 301° |
| 2026-04-29 17:27 | 44.03316 | -3.41294 | 33828 ft | 450 kts | 301° |
| 2026-04-29 17:27 | 44.06964 | -3.48322 | 33825 ft | 450 kts | 301° |
| 2026-04-29 17:28 | 44.10629 | -3.55401 | 33825 ft | 451 kts | 301° |
| 2026-04-29 17:28 | 44.14292 | -3.62494 | 33828 ft | 451 kts | 301° |
| 2026-04-29 17:29 | 44.17948 | -3.69590 | 33828 ft | 451 kts | 301° |
| 2026-04-29 17:29 | 44.21606 | -3.76709 | 33828 ft | 451 kts | 301° |
| 2026-04-29 17:30 | 44.25246 | -3.83811 | 33949 ft | 455 kts | 301° |
| 2026-04-29 17:30 | 44.28971 | -3.91099 | 33881 ft | 467 kts | 301° |
| 2026-04-29 17:31 | 44.33273 | -3.97992 | 33841 ft | 477 kts | 317° |
| 2026-04-29 17:31 | 44.39006 | -4.02695 | 33854 ft | 484 kts | 335° |
| 2026-04-29 17:32 | 44.45238 | -4.06289 | 33842 ft | 484 kts | 335° |
| 2026-04-29 17:32 | 44.51454 | -4.09905 | 33835 ft | 483 kts | 335° |
| 2026-04-29 17:33 | 44.57639 | -4.13581 | 33838 ft | 482 kts | 334° |
| 2026-04-29 17:33 | 44.63795 | -4.17282 | 33844 ft | 480 kts | 334° |
| 2026-04-29 17:34 | 44.69905 | -4.20969 | 33846 ft | 480 kts | 334° |
| 2026-04-29 17:34 | 44.76040 | -4.24676 | 33845 ft | 480 kts | 334° |
| 2026-04-29 17:35 | 44.85229 | -4.30243 | 33853 ft | 480 kts | 334° |
| 2026-04-29 17:36 | 44.91385 | -4.33982 | 33852 ft | 481 kts | 334° |
| 2026-04-29 17:36 | 44.97558 | -4.37740 | 33857 ft | 483 kts | 334° |
| 2026-04-29 17:37 | 45.03743 | -4.41515 | 33853 ft | 484 kts | 334° |
| 2026-04-29 17:37 | 45.09914 | -4.45289 | 33853 ft | 486 kts | 334° |
| 2026-04-29 17:38 | 45.16139 | -4.49106 | 33855 ft | 487 kts | 334° |
| 2026-04-29 17:38 | 45.22375 | -4.52938 | 33860 ft | 489 kts | 334° |
| 2026-04-29 17:39 | 45.28626 | -4.56789 | 33859 ft | 490 kts | 334° |
| 2026-04-29 17:39 | 45.34854 | -4.60635 | 33859 ft | 491 kts | 333° |
| 2026-04-29 17:40 | 45.41125 | -4.64518 | 33860 ft | 491 kts | 333° |
| 2026-04-29 17:40 | 45.47398 | -4.68411 | 33857 ft | 491 kts | 333° |
| 2026-04-29 17:41 | 45.53660 | -4.72306 | 33856 ft | 491 kts | 333° |
| 2026-04-29 17:41 | 45.59882 | -4.76185 | 33862 ft | 491 kts | 333° |
| 2026-04-29 17:42 | 45.66138 | -4.80096 | 33867 ft | 490 kts | 333° |
| 2026-04-29 17:42 | 45.72389 | -4.84013 | 33870 ft | 489 kts | 333° |
| 2026-04-29 17:43 | 45.78687 | -4.87758 | 33856 ft | 490 kts | 335° |
| 2026-04-29 17:43 | 45.85011 | -4.91359 | 33868 ft | 489 kts | 335° |
| 2026-04-29 17:44 | 45.91290 | -4.94955 | 33867 ft | 487 kts | 335° |
| 2026-04-29 17:44 | 45.97577 | -4.98600 | 33867 ft | 486 kts | 335° |
| 2026-04-29 17:45 | 46.03843 | -5.02259 | 33868 ft | 485 kts | 335° |
| 2026-04-29 17:45 | 46.10087 | -5.05915 | 33866 ft | 483 kts | 335° |
| 2026-04-29 17:46 | 46.16324 | -5.09576 | 33872 ft | 483 kts | 335° |
| 2026-04-29 17:46 | 46.22504 | -5.13211 | 33876 ft | 482 kts | 335° |
| 2026-04-29 17:47 | 46.28711 | -5.16870 | 33876 ft | 481 kts | 335° |
| 2026-04-29 17:47 | 46.34922 | -5.20540 | 33880 ft | 481 kts | 335° |
| 2026-04-29 17:48 | 46.41098 | -5.24199 | 33880 ft | 481 kts | 335° |
| 2026-04-29 17:48 | 46.47304 | -5.27885 | 33885 ft | 481 kts | 335° |
| 2026-04-29 17:49 | 46.53520 | -5.31586 | 33886 ft | 482 kts | 335° |
| 2026-04-29 17:49 | 46.59682 | -5.35263 | 33892 ft | 482 kts | 335° |
| 2026-04-29 17:50 | 46.65895 | -5.38980 | 33888 ft | 482 kts | 335° |
| 2026-04-29 17:50 | 46.72110 | -5.42708 | 33879 ft | 483 kts | 335° |
| 2026-04-29 17:51 | 46.78328 | -5.46447 | 33884 ft | 483 kts | 335° |
| 2026-04-29 17:51 | 46.84512 | -5.50174 | 33895 ft | 483 kts | 335° |
| 2026-04-29 17:52 | 46.90732 | -5.53933 | 33900 ft | 484 kts | 336° |
| 2026-04-29 17:52 | 46.96965 | -5.57709 | 33902 ft | 484 kts | 336° |
| 2026-04-29 17:53 | 47.03200 | -5.61497 | 33899 ft | 485 kts | 336° |
| 2026-04-29 17:53 | 47.09418 | -5.65283 | 33902 ft | 486 kts | 336° |
| 2026-04-29 17:54 | 47.15674 | -5.69101 | 33903 ft | 486 kts | 336° |
| 2026-04-29 17:54 | 47.21924 | -5.72927 | 33902 ft | 487 kts | 336° |
| 2026-04-29 17:55 | 47.28156 | -5.76751 | 33903 ft | 488 kts | 336° |
| 2026-04-29 17:55 | 47.34427 | -5.80609 | 33905 ft | 488 kts | 336° |
| 2026-04-29 17:56 | 47.40715 | -5.84486 | 33906 ft | 489 kts | 336° |
| 2026-04-29 17:56 | 47.46958 | -5.88347 | 33905 ft | 489 kts | 336° |
| 2026-04-29 17:57 | 47.53247 | -5.92246 | 33906 ft | 490 kts | 336° |
| 2026-04-29 17:57 | 47.59550 | -5.96164 | 33909 ft | 490 kts | 336° |
| 2026-04-29 17:58 | 47.65793 | -6.00054 | 33912 ft | 491 kts | 336° |
| 2026-04-29 17:58 | 47.72108 | -6.04000 | 33915 ft | 491 kts | 336° |
| 2026-04-29 17:59 | 47.78415 | -6.07952 | 33918 ft | 491 kts | 336° |
| 2026-04-29 17:59 | 47.84686 | -6.11891 | 33920 ft | 492 kts | 336° |
| 2026-04-29 18:00 | 47.90991 | -6.15862 | 33920 ft | 492 kts | 336° |
| 2026-04-29 18:00 | 47.97323 | -6.19860 | 33917 ft | 493 kts | 336° |
| 2026-04-29 18:01 | 48.03641 | -6.23861 | 33925 ft | 493 kts | 336° |
| 2026-04-29 18:01 | 48.09957 | -6.27870 | 33926 ft | 493 kts | 336° |
| 2026-04-29 18:02 | 48.16242 | -6.31871 | 33927 ft | 494 kts | 336° |
| 2026-04-29 18:02 | 48.22569 | -6.35909 | 33927 ft | 494 kts | 336° |
| 2026-04-29 18:03 | 48.28897 | -6.39959 | 33927 ft | 494 kts | 336° |
| 2026-04-29 18:03 | 48.35242 | -6.44031 | 33924 ft | 495 kts | 336° |
| 2026-04-29 18:04 | 48.41578 | -6.48108 | 33929 ft | 496 kts | 335° |
| 2026-04-29 18:04 | 48.47930 | -6.52206 | 33929 ft | 496 kts | 335° |
| 2026-04-29 18:05 | 48.54251 | -6.56296 | 33933 ft | 497 kts | 335° |
| 2026-04-29 18:05 | 48.60610 | -6.60421 | 33938 ft | 497 kts | 335° |
| 2026-04-29 18:06 | 48.66969 | -6.64558 | 33933 ft | 497 kts | 335° |
| 2026-04-29 18:06 | 48.73323 | -6.68703 | 33940 ft | 497 kts | 335° |
| 2026-04-29 18:07 | 48.79682 | -6.72863 | 33944 ft | 498 kts | 335° |
| 2026-04-29 18:07 | 48.86006 | -6.77011 | 33944 ft | 498 kts | 335° |
| 2026-04-29 18:08 | 48.92364 | -6.81193 | 33948 ft | 497 kts | 335° |
| 2026-04-29 18:08 | 48.98725 | -6.85389 | 33946 ft | 498 kts | 336° |
| 2026-04-29 18:09 | 49.05080 | -6.89593 | 33948 ft | 498 kts | 336° |
| 2026-04-29 18:09 | 49.11444 | -6.93814 | 33948 ft | 498 kts | 336° |
| 2026-04-29 18:10 | 49.17806 | -6.98046 | 33960 ft | 498 kts | 336° |
| 2026-04-29 18:10 | 49.24124 | -7.02261 | 33961 ft | 499 kts | 336° |
| 2026-04-29 18:11 | 49.30490 | -7.06519 | 33963 ft | 499 kts | 336° |
| 2026-04-29 18:11 | 49.36865 | -7.10795 | 33967 ft | 500 kts | 336° |
| 2026-04-29 18:12 | 49.43245 | -7.15087 | 33967 ft | 500 kts | 336° |
| 2026-04-29 18:12 | 49.49575 | -7.19358 | 33974 ft | 500 kts | 336° |
| 2026-04-29 18:13 | 49.55946 | -7.23668 | 33979 ft | 500 kts | 336° |
| 2026-04-29 18:13 | 49.62315 | -7.27990 | 33982 ft | 499 kts | 336° |
| 2026-04-29 18:14 | 49.68672 | -7.32315 | 33989 ft | 499 kts | 336° |
| 2026-04-29 18:14 | 49.73954 | -7.35919 | 33991 ft | 498 kts | 336° |
| 2026-04-29 18:15 | 49.81333 | -7.40968 | 34000 ft | 498 kts | 336° |
| 2026-04-29 18:15 | 49.86601 | -7.44583 | 34003 ft | 497 kts | 336° |
| 2026-04-29 18:16 | 49.92915 | -7.48927 | 34012 ft | 496 kts | 336° |
| 2026-04-29 18:16 | 49.99210 | -7.53270 | 34000 ft | 492 kts | 336° |
| 2026-04-29 18:17 | 50.05439 | -7.57580 | 34028 ft | 489 kts | 336° |
| 2026-04-29 18:17 | 50.11659 | -7.61896 | 34033 ft | 489 kts | 336° |
| 2026-04-29 18:17 | 50.14731 | -7.64033 | 33734 ft | 481 kts | 336° |
| 2026-04-29 18:18 | 50.17724 | -7.66117 | 33384 ft | 475 kts | 336° |
| 2026-04-29 18:18 | 50.20753 | -7.68229 | 32619 ft | 479 kts | 336° |
| 2026-04-29 18:18 | 50.23811 | -7.70364 | 32014 ft | 480 kts | 336° |
| 2026-04-29 18:18 | 50.26844 | -7.72485 | 31609 ft | 476 kts | 336° |
| 2026-04-29 18:19 | 50.29857 | -7.74595 | 31172 ft | 473 kts | 335° |
| 2026-04-29 18:19 | 50.32853 | -7.76696 | 30770 ft | 469 kts | 335° |
| 2026-04-29 18:19 | 50.35829 | -7.78786 | 30364 ft | 466 kts | 335° |
| 2026-04-29 18:19 | 50.38783 | -7.80864 | 29937 ft | 463 kts | 335° |
| 2026-04-29 18:20 | 50.41710 | -7.82925 | 29479 ft | 460 kts | 335° |
| 2026-04-29 18:20 | 50.44615 | -7.84974 | 29037 ft | 456 kts | 335° |
| 2026-04-29 18:20 | 50.47457 | -7.86981 | 28641 ft | 451 kts | 336° |
| 2026-04-29 18:20 | 50.50302 | -7.88993 | 28347 ft | 444 kts | 336° |
| 2026-04-29 18:21 | 50.53101 | -7.90974 | 27936 ft | 440 kts | 336° |
| 2026-04-29 18:21 | 50.55884 | -7.92948 | 27620 ft | 435 kts | 336° |
| 2026-04-29 18:21 | 50.58659 | -7.94917 | 26916 ft | 440 kts | 336° |
| 2026-04-29 18:21 | 50.61437 | -7.96891 | 26231 ft | 444 kts | 336° |
| 2026-04-29 18:22 | 50.64303 | -7.98805 | 25411 ft | 450 kts | 343° |
| 2026-04-29 18:22 | 50.67329 | -8.00052 | 24768 ft | 449 kts | 353° |
| 2026-04-29 18:22 | 50.70418 | -8.00501 | 24333 ft | 441 kts | 2° |
| 2026-04-29 18:22 | 50.73463 | -8.00647 | 23959 ft | 435 kts | 2° |
| 2026-04-29 18:23 | 50.76474 | -8.00790 | 23515 ft | 431 kts | 2° |
| 2026-04-29 18:23 | 50.79460 | -8.00945 | 22997 ft | 428 kts | 2° |
| 2026-04-29 18:23 | 50.82426 | -8.01115 | 22509 ft | 424 kts | 2° |
| 2026-04-29 18:23 | 50.85361 | -8.01295 | 22050 ft | 420 kts | 2° |
| 2026-04-29 18:24 | 50.88270 | -8.01481 | 21591 ft | 416 kts | 2° |
| 2026-04-29 18:24 | 50.91152 | -8.01670 | 21139 ft | 412 kts | 2° |
| 2026-04-29 18:24 | 50.93975 | -8.01857 | 20687 ft | 409 kts | 2° |
| 2026-04-29 18:24 | 50.96802 | -8.02045 | 20242 ft | 406 kts | 2° |
| 2026-04-29 18:25 | 50.99615 | -8.02231 | 19812 ft | 402 kts | 2° |
| 2026-04-29 18:25 | 51.02404 | -8.02417 | 19390 ft | 399 kts | 2° |
| 2026-04-29 18:25 | 51.05180 | -8.02601 | 18960 ft | 396 kts | 3° |
| 2026-04-29 18:25 | 51.07925 | -8.02784 | 18542 ft | 393 kts | 3° |
| 2026-04-29 18:26 | 51.10646 | -8.02965 | 18099 ft | 390 kts | 3° |
| 2026-04-29 18:26 | 51.13316 | -8.03142 | 17658 ft | 386 kts | 3° |
| 2026-04-29 18:26 | 51.15991 | -8.03321 | 17225 ft | 382 kts | 3° |
| 2026-04-29 18:26 | 51.18644 | -8.03498 | 16796 ft | 379 kts | 3° |
| 2026-04-29 18:27 | 51.21265 | -8.03673 | 16379 ft | 375 kts | 3° |
| 2026-04-29 18:27 | 51.23865 | -8.03847 | 15948 ft | 372 kts | 3° |
| 2026-04-29 18:27 | 51.26441 | -8.04019 | 15533 ft | 369 kts | 3° |
| 2026-04-29 18:27 | 51.29006 | -8.04191 | 15129 ft | 366 kts | 2° |
| 2026-04-29 18:28 | 51.31535 | -8.04360 | 14721 ft | 363 kts | 2° |
| 2026-04-29 18:28 | 51.34044 | -8.04529 | 14394 ft | 358 kts | 2° |
| 2026-04-29 18:28 | 51.36457 | -8.04695 | 14292 ft | 346 kts | 2° |
| 2026-04-29 18:28 | 51.38818 | -8.04857 | 14170 ft | 335 kts | 3° |
| 2026-04-29 18:29 | 51.41140 | -8.05013 | 13876 ft | 331 kts | 3° |
| 2026-04-29 18:29 | 51.42666 | -8.05114 | 13619 ft | 330 kts | 3° |
| 2026-04-29 18:29 | 51.45738 | -8.05317 | 13111 ft | 328 kts | 3° |
| 2026-04-29 18:29 | 51.48011 | -8.05469 | 12751 ft | 326 kts | 3° |
| 2026-04-29 18:30 | 51.50273 | -8.05621 | 12383 ft | 324 kts | 3° |
| 2026-04-29 18:30 | 51.52494 | -8.05771 | 12034 ft | 322 kts | 3° |
| 2026-04-29 18:30 | 51.54528 | -8.05910 | 11723 ft | 320 kts | 3° |
| 2026-04-29 18:30 | 51.56799 | -8.06325 | 11331 ft | 326 kts | 347° |
| 2026-04-29 18:31 | 51.58902 | -8.07763 | 11013 ft | 328 kts | 339° |
| 2026-04-29 18:31 | 51.60966 | -8.09313 | 10683 ft | 326 kts | 339° |
| 2026-04-29 18:31 | 51.63026 | -8.10822 | 10350 ft | 324 kts | 340° |
| 2026-04-29 18:31 | 51.65067 | -8.12297 | 10189 ft | 316 kts | 340° |
| 2026-04-29 18:32 | 51.67057 | -8.13729 | 10009 ft | 310 kts | 341° |
| 2026-04-29 18:32 | 51.70958 | -8.16515 | 9376 ft | 307 kts | 341° |
| 2026-04-29 18:32 | 51.72909 | -8.17908 | 9066 ft | 304 kts | 341° |
| 2026-04-29 18:33 | 51.74840 | -8.19289 | 8749 ft | 303 kts | 341° |
| 2026-04-29 18:33 | 51.76772 | -8.20670 | 8457 ft | 300 kts | 340° |
| 2026-04-29 18:33 | 51.78652 | -8.22016 | 8238 ft | 300 kts | 340° |
| 2026-04-29 18:33 | 51.80573 | -8.23391 | 8182 ft | 303 kts | 340° |
| 2026-04-29 18:34 | 51.82498 | -8.24772 | 8178 ft | 301 kts | 340° |
| 2026-04-29 18:34 | 51.83765 | -8.25683 | 8164 ft | 300 kts | 340° |
| 2026-04-29 18:34 | 51.86326 | -8.27523 | 8011 ft | 302 kts | 340° |
| 2026-04-29 18:34 | 51.88251 | -8.28907 | 7826 ft | 303 kts | 340° |
| 2026-04-29 18:35 | 51.90167 | -8.30288 | 7627 ft | 299 kts | 340° |
| 2026-04-29 18:35 | 51.92042 | -8.31643 | 7461 ft | 292 kts | 340° |
| 2026-04-29 18:35 | 51.93879 | -8.32970 | 7301 ft | 286 kts | 340° |
| 2026-04-29 18:35 | 51.95655 | -8.34252 | 7151 ft | 281 kts | 340° |
| 2026-04-29 18:36 | 51.97442 | -8.35543 | 7003 ft | 280 kts | 340° |
| 2026-04-29 18:36 | 51.99224 | -8.36830 | 6856 ft | 279 kts | 340° |
| 2026-04-29 18:36 | 52.00999 | -8.38115 | 6696 ft | 279 kts | 340° |
| 2026-04-29 18:36 | 52.02768 | -8.39397 | 6530 ft | 278 kts | 340° |
| 2026-04-29 18:37 | 52.04522 | -8.40678 | 6361 ft | 274 kts | 337° |
| 2026-04-29 18:37 | 52.06007 | -8.42568 | 6199 ft | 272 kts | 307° |
| 2026-04-29 18:37 | 52.06718 | -8.45341 | 5931 ft | 265 kts | 276° |
| 2026-04-29 18:37 | 52.06630 | -8.48273 | 5608 ft | 257 kts | 253° |
| 2026-04-29 18:38 | 52.06090 | -8.50985 | 5225 ft | 254 kts | 246° |
| 2026-04-29 18:38 | 52.05464 | -8.53633 | 4904 ft | 248 kts | 245° |
| 2026-04-29 18:38 | 52.04853 | -8.56225 | 4556 ft | 243 kts | 245° |
| 2026-04-29 18:38 | 52.04145 | -8.58626 | 4224 ft | 229 kts | 226° |
| 2026-04-29 18:39 | 52.02899 | -8.59854 | 3997 ft | 199 kts | 181° |
| 2026-04-29 18:39 | 52.01620 | -8.59586 | 3796 ft | 177 kts | 155° |
| 2026-04-29 18:39 | 52.00481 | -8.58919 | 3572 ft | 170 kts | 152° |
| 2026-04-29 18:39 | 51.99382 | -8.58231 | 3420 ft | 166 kts | 150° |
| 2026-04-29 18:40 | 51.98293 | -8.57527 | 3253 ft | 173 kts | 152° |
| 2026-04-29 18:40 | 51.97183 | -8.56854 | 3041 ft | 170 kts | 152° |
| 2026-04-29 18:40 | 51.96110 | -8.56220 | 2826 ft | 159 kts | 151° |
| 2026-04-29 18:40 | 51.95091 | -8.55609 | 2629 ft | 155 kts | 150° |
| 2026-04-29 18:41 | 51.92106 | -8.53841 | 1975 ft | 161 kts | 160° |
| 2026-04-29 18:41 | 51.91055 | -8.53219 | 1755 ft | 160 kts | 160° |
| 2026-04-29 18:42 | 51.90008 | -8.52597 | 1540 ft | 161 kts | 160° |
| 2026-04-29 18:42 | 51.88961 | -8.52007 | 1371 ft | 158 kts | 152° |
| 2026-04-29 18:42 | 51.87947 | -8.51376 | 1149 ft | 156 kts | 150° |
| 2026-04-29 18:42 | 51.86923 | -8.50764 | 929 ft | 157 kts | 152° |
| 2026-04-29 18:43 | 51.85902 | -8.50164 | 704 ft | 156 kts | 154° |
| 2026-04-29 18:43 | 51.84895 | -8.49560 | 501 ft | 151 kts | 155° |
| 2026-04-29 18:43 | 51.84003 | -8.49027 | 467 ft | 103 kts | 161° |
| 2026-04-29 18:43 | 51.83695 | -8.48850 | 466 ft | 31 kts | 160° |
| 2026-04-29 18:44 | 51.83500 | -8.48733 | 470 ft | 29 kts | 160° |
| 2026-04-29 18:44 | 51.83316 | -8.48628 | 470 ft | 27 kts | 160° |
| 2026-04-29 18:44 | 51.83255 | -8.48608 | 467 ft | 7 kts | 146° |
| 2026-04-29 18:44 | 51.83257 | -8.48542 | 471 ft | 2 kts | 38° |
| 2026-04-29 18:45 | 51.83271 | -8.48554 | 471 ft | 3 kts | 319° |
| 2026-04-29 18:45 | 51.83293 | -8.48586 | 469 ft | 5 kts | 318° |
| 2026-04-29 18:45 | 51.83324 | -8.48627 | 469 ft | 8 kts | 327° |
| 2026-04-29 18:45 | 51.83394 | -8.48675 | 467 ft | 12 kts | 339° |
| 2026-04-29 18:46 | 51.83472 | -8.48722 | 467 ft | 12 kts | 340° |
| 2026-04-29 18:46 | 51.83553 | -8.48769 | 469 ft | 14 kts | 340° |
| 2026-04-29 18:46 | 51.83662 | -8.48831 | 467 ft | 19 kts | 340° |
| 2026-04-29 18:46 | 51.83802 | -8.48912 | 467 ft | 23 kts | 340° |
| 2026-04-29 18:47 | 51.83952 | -8.49004 | 471 ft | 23 kts | 340° |
| 2026-04-29 18:47 | 51.84098 | -8.49089 | 474 ft | 22 kts | 340° |
| 2026-04-29 18:47 | 51.84240 | -8.49172 | 481 ft | 21 kts | 340° |
| 2026-04-29 18:47 | 51.84335 | -8.49059 | 480 ft | 19 kts | 60° |
| 2026-04-29 18:48 | 51.84402 | -8.48985 | 488 ft | 8 kts | 341° |
| 2026-04-29 18:48 | 51.84455 | -8.49017 | 486 ft | 8 kts | 340° |
| 2026-04-29 18:48 | 51.84506 | -8.49048 | 490 ft | 8 kts | 340° |
| 2026-04-29 18:48 | 51.84556 | -8.49077 | 496 ft | 8 kts | 339° |
| 2026-04-29 18:49 | 51.84605 | -8.49106 | 495 ft | 7 kts | 340° |
| 2026-04-29 18:49 | 51.84651 | -8.49133 | 500 ft | 7 kts | 340° |
| 2026-04-29 18:49 | 51.84697 | -8.49160 | 502 ft | 7 kts | 340° |
| 2026-04-29 18:49 | 51.84741 | -8.49186 | 502 ft | 7 kts | 340° |
| 2026-04-29 18:50 | 51.84786 | -8.49207 | 502 ft | 7 kts | 346° |
| 2026-04-29 18:50 | 51.84821 | -8.49170 | 502 ft | 7 kts | 65° |
| 2026-04-29 18:50 | 51.84837 | -8.49099 | 502 ft | 7 kts | 70° |
| 2026-04-29 18:50 | 51.84843 | -8.49071 | 502 ft | 1 kts | 70° |
| 2026-04-29 18:51 | 51.84847 | -8.49055 | 502 ft | 0 kts | 70° |